sensor_id;sensor_type;location;lat;lon;timestamp;P1;durP1;ratioP1;P2;durP2;ratioP2
66567;SDS011;53422;49.296;6.900;2023-09-12T00:00:55;12.98;;;4.90;;
66567;SDS011;53422;49.296;6.900;2023-09-12T00:03:22;8.85;;;4.65;;
66567;SDS011;53422;49.296;6.900;2023-09-12T00:05:55;13.45;;;4.80;;
66567;SDS011;53422;49.296;6.900;2023-09-12T00:08:22;10.07;;;4.55;;
66567;SDS011;53422;49.296;6.900;2023-09-12T00:11:01;9.55;;;4.68;;
66567;SDS011;53422;49.296;6.900;2023-09-12T00:13:30;11.13;;;4.85;;
66567;SDS011;53422;49.296;6.900;2023-09-12T00:15:56;12.70;;;4.65;;
66567;SDS011;53422;49.296;6.900;2023-09-12T00:18:22;9.20;;;4.25;;
66567;SDS011;53422;49.296;6.900;2023-09-12T00:20:49;11.77;;;5.15;;
66567;SDS011;53422;49.296;6.900;2023-09-12T00:23:15;12.30;;;5.30;;
66567;SDS011;53422;49.296;6.900;2023-09-12T00:25:40;6.95;;;4.28;;
66567;SDS011;53422;49.296;6.900;2023-09-12T00:28:06;10.43;;;4.78;;
66567;SDS011;53422;49.296;6.900;2023-09-12T00:30:31;11.55;;;4.35;;
66567;SDS011;53422;49.296;6.900;2023-09-12T00:32:57;9.00;;;4.60;;
66567;SDS011;53422;49.296;6.900;2023-09-12T00:35:23;8.95;;;4.95;;
66567;SDS011;53422;49.296;6.900;2023-09-12T00:37:48;7.95;;;4.47;;
66567;SDS011;53422;49.296;6.900;2023-09-12T00:40:14;12.25;;;4.55;;
66567;SDS011;53422;49.296;6.900;2023-09-12T00:42:40;8.45;;;4.13;;
66567;SDS011;53422;49.296;6.900;2023-09-12T00:45:06;9.25;;;4.97;;
66567;SDS011;53422;49.296;6.900;2023-09-12T00:47:32;12.23;;;4.90;;
66567;SDS011;53422;49.296;6.900;2023-09-12T00:49:58;11.68;;;4.68;;
66567;SDS011;53422;49.296;6.900;2023-09-12T00:52:26;9.40;;;5.10;;
66567;SDS011;53422;49.296;6.900;2023-09-12T00:54:53;9.55;;;4.07;;
66567;SDS011;53422;49.296;6.900;2023-09-12T00:57:20;13.43;;;4.63;;
66567;SDS011;53422;49.296;6.900;2023-09-12T00:59:47;13.20;;;4.88;;
66567;SDS011;53422;49.296;6.900;2023-09-12T01:02:13;8.50;;;4.07;;
66567;SDS011;53422;49.296;6.900;2023-09-12T01:04:39;7.72;;;4.28;;
66567;SDS011;53422;49.296;6.900;2023-09-12T01:07:05;10.77;;;5.07;;
66567;SDS011;53422;49.296;6.900;2023-09-12T01:09:31;7.32;;;4.53;;
66567;SDS011;53422;49.296;6.900;2023-09-12T01:11:58;10.02;;;4.40;;
66567;SDS011;53422;49.296;6.900;2023-09-12T01:14:27;8.07;;;4.80;;
66567;SDS011;53422;49.296;6.900;2023-09-12T01:16:54;10.15;;;4.20;;
66567;SDS011;53422;49.296;6.900;2023-09-12T01:19:19;10.95;;;4.85;;
66567;SDS011;53422;49.296;6.900;2023-09-12T01:29:42;8.48;;;4.32;;
66567;SDS011;53422;49.296;6.900;2023-09-12T01:32:10;11.82;;;4.68;;
66567;SDS011;53422;49.296;6.900;2023-09-12T01:34:36;8.35;;;4.50;;
66567;SDS011;53422;49.296;6.900;2023-09-12T01:37:02;11.05;;;4.43;;
66567;SDS011;53422;49.296;6.900;2023-09-12T01:39:28;9.40;;;5.00;;
66567;SDS011;53422;49.296;6.900;2023-09-12T01:41:53;7.97;;;4.57;;
66567;SDS011;53422;49.296;6.900;2023-09-12T01:44:20;8.60;;;4.35;;
66567;SDS011;53422;49.296;6.900;2023-09-12T01:46:50;13.18;;;5.47;;
66567;SDS011;53422;49.296;6.900;2023-09-12T01:49:19;8.05;;;4.38;;
66567;SDS011;53422;49.296;6.900;2023-09-12T01:51:47;9.10;;;4.53;;
66567;SDS011;53422;49.296;6.900;2023-09-12T01:54:13;10.57;;;4.60;;
66567;SDS011;53422;49.296;6.900;2023-09-12T01:56:39;7.95;;;4.50;;
66567;SDS011;53422;49.296;6.900;2023-09-12T01:59:06;7.43;;;4.60;;
66567;SDS011;53422;49.296;6.900;2023-09-12T02:01:31;9.75;;;4.95;;
66567;SDS011;53422;49.296;6.900;2023-09-12T02:03:57;8.35;;;4.65;;
66567;SDS011;53422;49.296;6.900;2023-09-12T02:06:23;9.98;;;4.40;;
66567;SDS011;53422;49.296;6.900;2023-09-12T02:08:48;11.65;;;5.00;;
66567;SDS011;53422;49.296;6.900;2023-09-12T02:11:14;9.63;;;4.90;;
66567;SDS011;53422;49.296;6.900;2023-09-12T02:13:40;11.88;;;4.70;;
66567;SDS011;53422;49.296;6.900;2023-09-12T02:16:05;13.65;;;4.95;;
66567;SDS011;53422;49.296;6.900;2023-09-12T02:18:31;9.48;;;5.30;;
66567;SDS011;53422;49.296;6.900;2023-09-12T02:20:58;12.52;;;5.30;;
66567;SDS011;53422;49.296;6.900;2023-09-12T02:23:24;10.43;;;5.00;;
66567;SDS011;53422;49.296;6.900;2023-09-12T02:25:49;6.85;;;5.00;;
66567;SDS011;53422;49.296;6.900;2023-09-12T02:28:15;12.30;;;5.20;;
66567;SDS011;53422;49.296;6.900;2023-09-12T02:30:41;11.20;;;4.72;;
66567;SDS011;53422;49.296;6.900;2023-09-12T02:33:06;10.73;;;5.30;;
66567;SDS011;53422;49.296;6.900;2023-09-12T02:35:32;10.25;;;5.00;;
66567;SDS011;53422;49.296;6.900;2023-09-12T02:37:57;11.02;;;5.32;;
66567;SDS011;53422;49.296;6.900;2023-09-12T02:40:23;9.80;;;5.47;;
66567;SDS011;53422;49.296;6.900;2023-09-12T02:42:49;8.43;;;4.90;;
66567;SDS011;53422;49.296;6.900;2023-09-12T02:45:15;11.80;;;5.60;;
66567;SDS011;53422;49.296;6.900;2023-09-12T02:47:41;9.60;;;5.10;;
66567;SDS011;53422;49.296;6.900;2023-09-12T02:50:08;8.73;;;4.75;;
66567;SDS011;53422;49.296;6.900;2023-09-12T02:52:34;9.98;;;4.63;;
66567;SDS011;53422;49.296;6.900;2023-09-12T02:55:00;8.32;;;5.45;;
66567;SDS011;53422;49.296;6.900;2023-09-12T02:57:25;10.65;;;5.07;;
66567;SDS011;53422;49.296;6.900;2023-09-12T02:59:51;8.02;;;4.70;;
66567;SDS011;53422;49.296;6.900;2023-09-12T03:02:17;8.70;;;4.85;;
66567;SDS011;53422;49.296;6.900;2023-09-12T03:04:43;8.73;;;4.53;;
66567;SDS011;53422;49.296;6.900;2023-09-12T03:07:09;9.35;;;4.43;;
66567;SDS011;53422;49.296;6.900;2023-09-12T03:09:35;10.25;;;5.00;;
66567;SDS011;53422;49.296;6.900;2023-09-12T03:12:02;8.45;;;4.50;;
66567;SDS011;53422;49.296;6.900;2023-09-12T03:14:29;9.75;;;5.30;;
66567;SDS011;53422;49.296;6.900;2023-09-12T03:16:55;11.20;;;4.80;;
66567;SDS011;53422;49.296;6.900;2023-09-12T03:19:21;10.38;;;4.93;;
66567;SDS011;53422;49.296;6.900;2023-09-12T03:21:47;8.18;;;4.55;;
66567;SDS011;53422;49.296;6.900;2023-09-12T03:24:12;7.93;;;5.18;;
66567;SDS011;53422;49.296;6.900;2023-09-12T03:26:38;9.18;;;5.18;;
66567;SDS011;53422;49.296;6.900;2023-09-12T03:29:03;8.30;;;4.75;;
66567;SDS011;53422;49.296;6.900;2023-09-12T03:31:29;10.98;;;4.72;;
66567;SDS011;53422;49.296;6.900;2023-09-12T03:33:55;11.93;;;5.10;;
66567;SDS011;53422;49.296;6.900;2023-09-12T03:36:21;9.43;;;4.75;;
66567;SDS011;53422;49.296;6.900;2023-09-12T03:38:46;9.40;;;4.90;;
66567;SDS011;53422;49.296;6.900;2023-09-12T03:41:12;8.40;;;5.13;;
66567;SDS011;53422;49.296;6.900;2023-09-12T03:43:37;8.18;;;4.70;;
66567;SDS011;53422;49.296;6.900;2023-09-12T03:46:03;7.65;;;4.50;;
66567;SDS011;53422;49.296;6.900;2023-09-12T03:48:32;9.60;;;5.05;;
66567;SDS011;53422;49.296;6.900;2023-09-12T03:51:01;10.27;;;4.60;;
66567;SDS011;53422;49.296;6.900;2023-09-12T03:53:27;10.15;;;4.68;;
66567;SDS011;53422;49.296;6.900;2023-09-12T03:55:53;9.52;;;5.03;;
66567;SDS011;53422;49.296;6.900;2023-09-12T03:58:18;10.65;;;5.65;;
66567;SDS011;53422;49.296;6.900;2023-09-12T04:00:44;9.10;;;4.93;;
66567;SDS011;53422;49.296;6.900;2023-09-12T04:03:09;8.25;;;4.65;;
66567;SDS011;53422;49.296;6.900;2023-09-12T04:05:35;10.45;;;4.53;;
66567;SDS011;53422;49.296;6.900;2023-09-12T04:08:01;9.07;;;4.60;;
66567;SDS011;53422;49.296;6.900;2023-09-12T04:10:26;10.52;;;4.85;;
66567;SDS011;53422;49.296;6.900;2023-09-12T04:12:52;10.65;;;5.13;;
66567;SDS011;53422;49.296;6.900;2023-09-12T04:15:17;7.90;;;4.75;;
66567;SDS011;53422;49.296;6.900;2023-09-12T04:17:43;11.55;;;5.25;;
66567;SDS011;53422;49.296;6.900;2023-09-12T04:20:09;12.18;;;5.15;;
66567;SDS011;53422;49.296;6.900;2023-09-12T04:22:38;10.85;;;5.10;;
66567;SDS011;53422;49.296;6.900;2023-09-12T04:25:04;8.63;;;5.32;;
66567;SDS011;53422;49.296;6.900;2023-09-12T04:27:30;9.93;;;5.15;;
66567;SDS011;53422;49.296;6.900;2023-09-12T04:29:56;9.88;;;5.07;;
66567;SDS011;53422;49.296;6.900;2023-09-12T04:32:21;9.30;;;4.78;;
66567;SDS011;53422;49.296;6.900;2023-09-12T04:34:48;9.75;;;4.57;;
66567;SDS011;53422;49.296;6.900;2023-09-12T04:37:15;11.82;;;5.05;;
66567;SDS011;53422;49.296;6.900;2023-09-12T04:39:40;12.40;;;5.50;;
66567;SDS011;53422;49.296;6.900;2023-09-12T04:42:06;8.38;;;5.00;;
66567;SDS011;53422;49.296;6.900;2023-09-12T04:44:41;8.80;;;4.90;;
66567;SDS011;53422;49.296;6.900;2023-09-12T04:47:07;10.35;;;5.22;;
66567;SDS011;53422;49.296;6.900;2023-09-12T04:49:34;11.00;;;4.78;;
66567;SDS011;53422;49.296;6.900;2023-09-12T04:52:00;9.23;;;4.50;;
66567;SDS011;53422;49.296;6.900;2023-09-12T04:54:26;10.75;;;4.63;;
66567;SDS011;53422;49.296;6.900;2023-09-12T04:56:51;15.77;;;5.25;;
66567;SDS011;53422;49.296;6.900;2023-09-12T04:59:18;11.30;;;5.68;;
66567;SDS011;53422;49.296;6.900;2023-09-12T05:01:43;9.00;;;5.28;;
66567;SDS011;53422;49.296;6.900;2023-09-12T05:04:09;10.73;;;5.20;;
66567;SDS011;53422;49.296;6.900;2023-09-12T05:06:35;10.57;;;4.82;;
66567;SDS011;53422;49.296;6.900;2023-09-12T05:09:00;9.45;;;4.47;;
66567;SDS011;53422;49.296;6.900;2023-09-12T05:11:26;9.18;;;4.78;;
66567;SDS011;53422;49.296;6.900;2023-09-12T05:13:52;9.32;;;4.93;;
66567;SDS011;53422;49.296;6.900;2023-09-12T05:16:18;12.15;;;5.63;;
66567;SDS011;53422;49.296;6.900;2023-09-12T05:18:43;11.70;;;5.20;;
66567;SDS011;53422;49.296;6.900;2023-09-12T05:21:09;12.15;;;5.07;;
66567;SDS011;53422;49.296;6.900;2023-09-12T05:23:35;7.75;;;4.93;;
66567;SDS011;53422;49.296;6.900;2023-09-12T05:26:00;11.00;;;5.47;;
66567;SDS011;53422;49.296;6.900;2023-09-12T05:28:26;9.38;;;5.07;;
66567;SDS011;53422;49.296;6.900;2023-09-12T05:30:52;9.48;;;5.05;;
66567;SDS011;53422;49.296;6.900;2023-09-12T05:33:18;9.02;;;4.95;;
66567;SDS011;53422;49.296;6.900;2023-09-12T05:35:44;9.43;;;4.80;;
66567;SDS011;53422;49.296;6.900;2023-09-12T05:38:10;10.20;;;5.20;;
66567;SDS011;53422;49.296;6.900;2023-09-12T05:40:36;10.05;;;5.57;;
66567;SDS011;53422;49.296;6.900;2023-09-12T05:43:01;13.55;;;6.05;;
66567;SDS011;53422;49.296;6.900;2023-09-12T05:45:27;9.57;;;5.05;;
66567;SDS011;53422;49.296;6.900;2023-09-12T05:47:55;11.50;;;5.95;;
66567;SDS011;53422;49.296;6.900;2023-09-12T05:50:21;12.70;;;5.88;;
66567;SDS011;53422;49.296;6.900;2023-09-12T05:52:48;11.63;;;5.43;;
66567;SDS011;53422;49.296;6.900;2023-09-12T05:55:13;10.48;;;4.95;;
66567;SDS011;53422;49.296;6.900;2023-09-12T05:57:39;8.32;;;5.13;;
66567;SDS011;53422;49.296;6.900;2023-09-12T06:00:05;8.25;;;4.93;;
66567;SDS011;53422;49.296;6.900;2023-09-12T06:02:35;10.23;;;5.53;;
66567;SDS011;53422;49.296;6.900;2023-09-12T06:05:00;9.30;;;5.38;;
66567;SDS011;53422;49.296;6.900;2023-09-12T06:07:26;13.32;;;5.85;;
66567;SDS011;53422;49.296;6.900;2023-09-12T06:09:52;10.82;;;5.95;;
66567;SDS011;53422;49.296;6.900;2023-09-12T06:12:17;10.10;;;5.53;;
66567;SDS011;53422;49.296;6.900;2023-09-12T06:14:43;11.57;;;6.38;;
66567;SDS011;53422;49.296;6.900;2023-09-12T06:17:09;12.90;;;5.43;;
66567;SDS011;53422;49.296;6.900;2023-09-12T06:19:34;10.20;;;5.88;;
66567;SDS011;53422;49.296;6.900;2023-09-12T06:22:00;11.02;;;6.07;;
66567;SDS011;53422;49.296;6.900;2023-09-12T06:24:26;13.45;;;5.97;;
66567;SDS011;53422;49.296;6.900;2023-09-12T06:26:54;12.50;;;5.68;;
66567;SDS011;53422;49.296;6.900;2023-09-12T06:29:20;11.55;;;5.80;;
66567;SDS011;53422;49.296;6.900;2023-09-12T06:31:45;8.90;;;5.15;;
66567;SDS011;53422;49.296;6.900;2023-09-12T06:34:11;11.05;;;5.45;;
66567;SDS011;53422;49.296;6.900;2023-09-12T06:36:38;11.75;;;5.85;;
66567;SDS011;53422;49.296;6.900;2023-09-12T06:39:04;13.88;;;5.60;;
66567;SDS011;53422;49.296;6.900;2023-09-12T06:41:30;12.25;;;5.35;;
66567;SDS011;53422;49.296;6.900;2023-09-12T06:43:56;12.40;;;6.38;;
66567;SDS011;53422;49.296;6.900;2023-09-12T06:48:49;10.75;;;5.22;;
66567;SDS011;53422;49.296;6.900;2023-09-12T06:51:15;12.75;;;5.80;;
66567;SDS011;53422;49.296;6.900;2023-09-12T06:53:42;10.40;;;5.75;;
66567;SDS011;53422;49.296;6.900;2023-09-12T06:56:08;13.60;;;5.75;;
66567;SDS011;53422;49.296;6.900;2023-09-12T06:58:34;12.20;;;5.88;;
66567;SDS011;53422;49.296;6.900;2023-09-12T07:01:03;15.60;;;6.28;;
66567;SDS011;53422;49.296;6.900;2023-09-12T07:03:33;12.57;;;5.72;;
66567;SDS011;53422;49.296;6.900;2023-09-12T07:06:00;11.82;;;5.82;;
66567;SDS011;53422;49.296;6.900;2023-09-12T07:08:26;15.70;;;6.50;;
66567;SDS011;53422;49.296;6.900;2023-09-12T07:10:54;13.73;;;6.93;;
66567;SDS011;53422;49.296;6.900;2023-09-12T07:13:21;15.93;;;8.20;;
66567;SDS011;53422;49.296;6.900;2023-09-12T07:15:48;14.98;;;8.15;;
66567;SDS011;53422;49.296;6.900;2023-09-12T07:18:14;14.38;;;8.02;;
66567;SDS011;53422;49.296;6.900;2023-09-12T07:20:40;14.30;;;7.47;;
66567;SDS011;53422;49.296;6.900;2023-09-12T07:23:06;15.32;;;7.28;;
66567;SDS011;53422;49.296;6.900;2023-09-12T07:25:36;11.55;;;7.38;;
66567;SDS011;53422;49.296;6.900;2023-09-12T07:28:04;13.85;;;7.10;;
66567;SDS011;53422;49.296;6.900;2023-09-12T07:30:29;13.35;;;6.90;;
66567;SDS011;53422;49.296;6.900;2023-09-12T07:32:55;12.32;;;6.80;;
66567;SDS011;53422;49.296;6.900;2023-09-12T07:35:21;11.68;;;6.15;;
66567;SDS011;53422;49.296;6.900;2023-09-12T07:37:49;15.07;;;6.93;;
66567;SDS011;53422;49.296;6.900;2023-09-12T07:40:14;11.85;;;6.80;;
66567;SDS011;53422;49.296;6.900;2023-09-12T07:42:40;13.95;;;7.13;;
66567;SDS011;53422;49.296;6.900;2023-09-12T07:45:06;14.50;;;7.57;;
66567;SDS011;53422;49.296;6.900;2023-09-12T07:47:32;16.33;;;6.93;;
66567;SDS011;53422;49.296;6.900;2023-09-12T07:49:58;12.82;;;6.55;;
66567;SDS011;53422;49.296;6.900;2023-09-12T07:52:25;13.85;;;7.20;;
66567;SDS011;53422;49.296;6.900;2023-09-12T07:54:51;15.23;;;7.53;;
66567;SDS011;53422;49.296;6.900;2023-09-12T07:57:22;13.88;;;6.85;;
66567;SDS011;53422;49.296;6.900;2023-09-12T07:59:48;12.25;;;6.70;;
66567;SDS011;53422;49.296;6.900;2023-09-12T08:02:13;13.13;;;7.40;;
66567;SDS011;53422;49.296;6.900;2023-09-12T08:04:39;12.70;;;6.05;;
66567;SDS011;53422;49.296;6.900;2023-09-12T08:07:05;12.88;;;6.50;;
66567;SDS011;53422;49.296;6.900;2023-09-12T08:12:17;11.73;;;6.72;;
66567;SDS011;53422;49.296;6.900;2023-09-12T08:14:44;12.40;;;6.53;;
66567;SDS011;53422;49.296;6.900;2023-09-12T08:17:11;14.30;;;7.15;;
66567;SDS011;53422;49.296;6.900;2023-09-12T08:19:37;15.27;;;6.53;;
66567;SDS011;53422;49.296;6.900;2023-09-12T08:22:04;10.38;;;6.70;;
66567;SDS011;53422;49.296;6.900;2023-09-12T08:24:31;14.80;;;6.57;;
66567;SDS011;53422;49.296;6.900;2023-09-12T08:26:56;11.02;;;6.53;;
66567;SDS011;53422;49.296;6.900;2023-09-12T08:29:22;11.95;;;6.47;;
66567;SDS011;53422;49.296;6.900;2023-09-12T08:31:49;12.60;;;7.00;;
66567;SDS011;53422;49.296;6.900;2023-09-12T08:34:15;14.05;;;6.18;;
66567;SDS011;53422;49.296;6.900;2023-09-12T08:36:41;17.70;;;6.20;;
66567;SDS011;53422;49.296;6.900;2023-09-12T08:39:10;19.50;;;6.82;;
66567;SDS011;53422;49.296;6.900;2023-09-12T08:41:39;13.77;;;6.57;;
66567;SDS011;53422;49.296;6.900;2023-09-12T08:44:05;13.75;;;6.88;;
66567;SDS011;53422;49.296;6.900;2023-09-12T08:46:31;9.63;;;6.15;;
66567;SDS011;53422;49.296;6.900;2023-09-12T08:48:57;13.98;;;6.55;;
66567;SDS011;53422;49.296;6.900;2023-09-12T08:51:23;12.95;;;6.45;;
66567;SDS011;53422;49.296;6.900;2023-09-12T08:53:52;13.93;;;6.82;;
66567;SDS011;53422;49.296;6.900;2023-09-12T08:56:18;11.48;;;6.50;;
66567;SDS011;53422;49.296;6.900;2023-09-12T08:58:44;12.15;;;6.80;;
66567;SDS011;53422;49.296;6.900;2023-09-12T09:01:13;12.77;;;6.10;;
66567;SDS011;53422;49.296;6.900;2023-09-12T09:03:41;9.95;;;6.13;;
66567;SDS011;53422;49.296;6.900;2023-09-12T09:06:09;11.90;;;6.45;;
66567;SDS011;53422;49.296;6.900;2023-09-12T09:08:36;14.25;;;8.10;;
66567;SDS011;53422;49.296;6.900;2023-09-12T09:11:02;12.80;;;6.60;;
66567;SDS011;53422;49.296;6.900;2023-09-12T09:13:30;11.35;;;6.45;;
66567;SDS011;53422;49.296;6.900;2023-09-12T09:18:49;11.35;;;6.57;;
66567;SDS011;53422;49.296;6.900;2023-09-12T09:21:32;13.75;;;6.53;;
66567;SDS011;53422;49.296;6.900;2023-09-12T09:24:02;13.20;;;7.13;;
66567;SDS011;53422;49.296;6.900;2023-09-12T09:26:48;12.43;;;7.13;;
66567;SDS011;53422;49.296;6.900;2023-09-12T09:29:16;10.73;;;6.63;;
66567;SDS011;53422;49.296;6.900;2023-09-12T09:31:43;16.67;;;6.80;;
66567;SDS011;53422;49.296;6.900;2023-09-12T09:36:42;11.88;;;6.78;;
66567;SDS011;53422;49.296;6.900;2023-09-12T09:39:09;11.20;;;7.32;;
66567;SDS011;53422;49.296;6.900;2023-09-12T09:41:36;14.02;;;8.02;;
66567;SDS011;53422;49.296;6.900;2023-09-12T09:44:03;11.55;;;7.05;;
66567;SDS011;53422;49.296;6.900;2023-09-12T09:46:33;13.20;;;7.68;;
66567;SDS011;53422;49.296;6.900;2023-09-12T09:48:59;14.73;;;7.22;;
66567;SDS011;53422;49.296;6.900;2023-09-12T09:51:26;13.77;;;7.20;;
66567;SDS011;53422;49.296;6.900;2023-09-12T09:53:52;11.48;;;6.40;;
66567;SDS011;53422;49.296;6.900;2023-09-12T09:56:22;13.80;;;7.28;;
66567;SDS011;53422;49.296;6.900;2023-09-12T09:58:52;12.60;;;6.93;;
66567;SDS011;53422;49.296;6.900;2023-09-12T10:01:20;13.25;;;7.00;;
66567;SDS011;53422;49.296;6.900;2023-09-12T10:03:48;13.15;;;6.88;;
66567;SDS011;53422;49.296;6.900;2023-09-12T10:06:16;9.95;;;6.43;;
66567;SDS011;53422;49.296;6.900;2023-09-12T10:08:43;11.98;;;6.95;;
66567;SDS011;53422;49.296;6.900;2023-09-12T10:11:12;14.68;;;7.05;;
66567;SDS011;53422;49.296;6.900;2023-09-12T10:13:41;13.43;;;6.72;;
66567;SDS011;53422;49.296;6.900;2023-09-12T10:21:11;9.38;;;5.97;;
66567;SDS011;53422;49.296;6.900;2023-09-12T10:23:46;12.20;;;6.82;;
66567;SDS011;53422;49.296;6.900;2023-09-12T10:26:16;12.70;;;7.05;;
66567;SDS011;53422;49.296;6.900;2023-09-12T10:28:43;12.60;;;7.07;;
66567;SDS011;53422;49.296;6.900;2023-09-12T10:31:11;11.98;;;7.45;;
66567;SDS011;53422;49.296;6.900;2023-09-12T10:33:37;12.15;;;7.43;;
66567;SDS011;53422;49.296;6.900;2023-09-12T10:36:03;14.82;;;7.45;;
66567;SDS011;53422;49.296;6.900;2023-09-12T10:38:32;13.25;;;7.22;;
66567;SDS011;53422;49.296;6.900;2023-09-12T10:41:01;12.35;;;7.22;;
66567;SDS011;53422;49.296;6.900;2023-09-12T10:43:28;14.80;;;7.35;;
66567;SDS011;53422;49.296;6.900;2023-09-12T10:45:58;10.02;;;6.75;;
66567;SDS011;53422;49.296;6.900;2023-09-12T10:48:28;10.23;;;6.53;;
66567;SDS011;53422;49.296;6.900;2023-09-12T10:50:57;9.30;;;6.53;;
66567;SDS011;53422;49.296;6.900;2023-09-12T10:53:26;10.45;;;7.13;;
66567;SDS011;53422;49.296;6.900;2023-09-12T10:55:58;17.20;;;6.78;;
66567;SDS011;53422;49.296;6.900;2023-09-12T10:58:33;12.27;;;7.03;;
66567;SDS011;53422;49.296;6.900;2023-09-12T11:01:22;12.80;;;7.15;;
66567;SDS011;53422;49.296;6.900;2023-09-12T11:03:50;11.05;;;6.72;;
66567;SDS011;53422;49.296;6.900;2023-09-12T11:06:19;13.93;;;7.00;;
66567;SDS011;53422;49.296;6.900;2023-09-12T11:09:15;11.52;;;7.03;;
66567;SDS011;53422;49.296;6.900;2023-09-12T11:11:38;14.02;;;7.40;;
66567;SDS011;53422;49.296;6.900;2023-09-12T11:14:04;12.52;;;7.03;;
66567;SDS011;53422;49.296;6.900;2023-09-12T11:16:31;11.23;;;6.60;;
66567;SDS011;53422;49.296;6.900;2023-09-12T11:21:51;11.38;;;6.82;;
66567;SDS011;53422;49.296;6.900;2023-09-12T11:24:18;9.77;;;6.07;;
66567;SDS011;53422;49.296;6.900;2023-09-12T11:26:55;10.15;;;6.78;;
66567;SDS011;53422;49.296;6.900;2023-09-12T11:29:26;13.75;;;6.70;;
66567;SDS011;53422;49.296;6.900;2023-09-12T11:32:00;11.25;;;5.85;;
66567;SDS011;53422;49.296;6.900;2023-09-12T11:34:28;10.68;;;6.65;;
66567;SDS011;53422;49.296;6.900;2023-09-12T11:36:55;11.30;;;6.53;;
66567;SDS011;53422;49.296;6.900;2023-09-12T11:39:27;8.52;;;6.05;;
66567;SDS011;53422;49.296;6.900;2023-09-12T11:41:59;10.02;;;5.65;;
66567;SDS011;53422;49.296;6.900;2023-09-12T11:44:25;9.20;;;5.95;;
66567;SDS011;53422;49.296;6.900;2023-09-12T11:46:52;8.93;;;5.43;;
66567;SDS011;53422;49.296;6.900;2023-09-12T11:49:19;10.45;;;5.70;;
66567;SDS011;53422;49.296;6.900;2023-09-12T11:51:54;10.13;;;6.25;;
66567;SDS011;53422;49.296;6.900;2023-09-12T11:54:21;9.57;;;6.20;;
66567;SDS011;53422;49.296;6.900;2023-09-12T11:56:50;10.85;;;6.45;;
66567;SDS011;53422;49.296;6.900;2023-09-12T11:59:22;9.90;;;5.50;;
66567;SDS011;53422;49.296;6.900;2023-09-12T12:01:48;7.82;;;5.22;;
66567;SDS011;53422;49.296;6.900;2023-09-12T12:04:13;9.63;;;5.93;;
66567;SDS011;53422;49.296;6.900;2023-09-12T12:06:40;9.85;;;5.80;;
66567;SDS011;53422;49.296;6.900;2023-09-12T12:09:06;9.13;;;6.45;;
66567;SDS011;53422;49.296;6.900;2023-09-12T12:11:32;8.65;;;6.15;;
66567;SDS011;53422;49.296;6.900;2023-09-12T12:13:58;10.73;;;5.93;;
66567;SDS011;53422;49.296;6.900;2023-09-12T12:16:33;9.73;;;5.88;;
66567;SDS011;53422;49.296;6.900;2023-09-12T12:18:58;8.68;;;5.38;;
66567;SDS011;53422;49.296;6.900;2023-09-12T12:21:24;10.93;;;6.00;;
66567;SDS011;53422;49.296;6.900;2023-09-12T12:24:00;9.57;;;5.93;;
66567;SDS011;53422;49.296;6.900;2023-09-12T12:26:26;11.15;;;5.85;;
66567;SDS011;53422;49.296;6.900;2023-09-12T12:28:52;9.23;;;5.75;;
66567;SDS011;53422;49.296;6.900;2023-09-12T12:31:18;8.65;;;5.53;;
66567;SDS011;53422;49.296;6.900;2023-09-12T12:33:48;10.25;;;5.85;;
66567;SDS011;53422;49.296;6.900;2023-09-12T12:36:14;9.18;;;5.35;;
66567;SDS011;53422;49.296;6.900;2023-09-12T12:38:40;8.43;;;4.97;;
66567;SDS011;53422;49.296;6.900;2023-09-12T12:41:08;12.02;;;6.25;;
66567;SDS011;53422;49.296;6.900;2023-09-12T12:43:34;9.93;;;5.85;;
66567;SDS011;53422;49.296;6.900;2023-09-12T12:46:01;10.32;;;5.82;;
66567;SDS011;53422;49.296;6.900;2023-09-12T12:48:31;10.10;;;6.35;;
66567;SDS011;53422;49.296;6.900;2023-09-12T12:50:58;11.25;;;5.78;;
66567;SDS011;53422;49.296;6.900;2023-09-12T12:56:13;6.75;;;5.18;;
66567;SDS011;53422;49.296;6.900;2023-09-12T12:58:45;9.68;;;5.07;;
66567;SDS011;53422;49.296;6.900;2023-09-12T13:01:14;8.18;;;4.78;;
66567;SDS011;53422;49.296;6.900;2023-09-12T13:03:40;9.88;;;5.25;;
66567;SDS011;53422;49.296;6.900;2023-09-12T13:06:06;6.22;;;4.53;;
66567;SDS011;53422;49.296;6.900;2023-09-12T13:08:38;8.38;;;4.57;;
66567;SDS011;53422;49.296;6.900;2023-09-12T13:11:05;8.45;;;5.43;;
66567;SDS011;53422;49.296;6.900;2023-09-12T13:13:30;9.88;;;5.47;;
66567;SDS011;53422;49.296;6.900;2023-09-12T13:15:56;8.90;;;4.82;;
66567;SDS011;53422;49.296;6.900;2023-09-12T13:18:22;7.97;;;5.43;;
66567;SDS011;53422;49.296;6.900;2023-09-12T13:20:47;9.05;;;5.00;;
66567;SDS011;53422;49.296;6.900;2023-09-12T13:23:13;9.70;;;5.05;;
66567;SDS011;53422;49.296;6.900;2023-09-12T13:25:38;8.27;;;5.05;;
66567;SDS011;53422;49.296;6.900;2023-09-12T13:28:04;9.98;;;4.72;;
66567;SDS011;53422;49.296;6.900;2023-09-12T13:30:30;11.68;;;4.95;;
66567;SDS011;53422;49.296;6.900;2023-09-12T13:32:55;7.22;;;4.90;;
66567;SDS011;53422;49.296;6.900;2023-09-12T13:35:21;8.73;;;5.00;;
66567;SDS011;53422;49.296;6.900;2023-09-12T13:37:47;9.10;;;4.85;;
66567;SDS011;53422;49.296;6.900;2023-09-12T13:40:12;6.97;;;4.47;;
66567;SDS011;53422;49.296;6.900;2023-09-12T13:42:38;9.88;;;5.30;;
66567;SDS011;53422;49.296;6.900;2023-09-12T13:45:04;11.15;;;5.10;;
66567;SDS011;53422;49.296;6.900;2023-09-12T13:47:30;8.75;;;5.57;;
66567;SDS011;53422;49.296;6.900;2023-09-12T13:49:57;7.75;;;5.13;;
66567;SDS011;53422;49.296;6.900;2023-09-12T13:52:25;5.85;;;3.90;;
66567;SDS011;53422;49.296;6.900;2023-09-12T13:54:51;6.22;;;3.78;;
66567;SDS011;53422;49.296;6.900;2023-09-12T13:57:17;7.25;;;4.35;;
66567;SDS011;53422;49.296;6.900;2023-09-12T13:59:43;6.57;;;4.00;;
66567;SDS011;53422;49.296;6.900;2023-09-12T14:02:08;8.68;;;4.43;;
66567;SDS011;53422;49.296;6.900;2023-09-12T14:04:34;8.82;;;5.03;;
66567;SDS011;53422;49.296;6.900;2023-09-12T14:07:00;8.73;;;5.00;;
66567;SDS011;53422;49.296;6.900;2023-09-12T14:09:25;8.35;;;5.05;;
66567;SDS011;53422;49.296;6.900;2023-09-12T14:11:51;8.07;;;5.15;;
66567;SDS011;53422;49.296;6.900;2023-09-12T14:14:16;8.25;;;5.03;;
66567;SDS011;53422;49.296;6.900;2023-09-12T14:16:42;9.15;;;5.20;;
66567;SDS011;53422;49.296;6.900;2023-09-12T14:19:09;9.70;;;5.30;;
66567;SDS011;53422;49.296;6.900;2023-09-12T14:21:35;9.13;;;5.50;;
66567;SDS011;53422;49.296;6.900;2023-09-12T14:24:01;10.88;;;5.63;;
66567;SDS011;53422;49.296;6.900;2023-09-12T14:26:26;8.15;;;5.03;;
66567;SDS011;53422;49.296;6.900;2023-09-12T14:28:52;7.80;;;5.03;;
66567;SDS011;53422;49.296;6.900;2023-09-12T14:31:17;8.40;;;4.93;;
66567;SDS011;53422;49.296;6.900;2023-09-12T14:33:43;8.68;;;5.40;;
66567;SDS011;53422;49.296;6.900;2023-09-12T14:36:09;6.93;;;4.60;;
66567;SDS011;53422;49.296;6.900;2023-09-12T14:38:35;8.50;;;4.75;;
66567;SDS011;53422;49.296;6.900;2023-09-12T14:41:01;6.43;;;4.57;;
66567;SDS011;53422;49.296;6.900;2023-09-12T14:43:27;6.80;;;3.97;;
66567;SDS011;53422;49.296;6.900;2023-09-12T14:45:56;7.50;;;4.32;;
66567;SDS011;53422;49.296;6.900;2023-09-12T14:48:22;9.18;;;4.97;;
66567;SDS011;53422;49.296;6.900;2023-09-12T14:50:47;6.97;;;4.90;;
66567;SDS011;53422;49.296;6.900;2023-09-12T14:53:16;7.82;;;5.13;;
66567;SDS011;53422;49.296;6.900;2023-09-12T14:55:42;9.27;;;4.80;;
66567;SDS011;53422;49.296;6.900;2023-09-12T14:58:08;7.70;;;4.78;;
66567;SDS011;53422;49.296;6.900;2023-09-12T15:00:34;7.63;;;4.88;;
66567;SDS011;53422;49.296;6.900;2023-09-12T15:03:01;8.55;;;4.50;;
66567;SDS011;53422;49.296;6.900;2023-09-12T15:05:27;7.43;;;4.90;;
66567;SDS011;53422;49.296;6.900;2023-09-12T15:07:52;7.10;;;4.85;;